Time;durP1;ratioP1;P1;durP2;ratioP2;P2;SDS_P1;SDS_P2;PMS_P1;PMS_P2;Temp;Humidity;BMP_temperature;BMP_pressure;BME280_temperature;BME280_humidity;BME280_pressure;Samples;Min_cycle;Max_cycle;Signal;HPM_P1;HPM_P2
2022/05/15 00:01:29;;;;;;;29.27;10.63;;;;;;;14.12;74.29;101869.91;5142613;27;20077;-62
2022/05/15 00:03:55;;;;;;;28.15;9.77;;;;;;;14.11;74.05;101865.47;5146871;27;20055;-62
2022/05/15 00:06:20;;;;;;;28.30;10.45;;;;;;;14.09;74.26;101861.94;5124892;27;20036;-62
2022/05/15 00:08:46;;;;;;;27.10;10.00;;;;;;;13.97;74.42;101864.53;5145699;27;20015;-62
2022/05/15 00:11:17;;;;;;;28.42;10.50;;;;;;;13.89;76.17;101861.78;5144532;27;20130;-63
2022/05/15 00:13:43;;;;;;;28.02;10.20;;;;;;;13.73;76.11;101872.34;5145188;27;20102;-62
2022/05/15 00:16:09;;;;;;;26.88;10.45;;;;;;;13.56;76.98;101852.72;5144984;27;20445;-63
2022/05/15 00:18:38;;;;;;;28.30;10.00;;;;;;;13.58;77.51;101856.25;5143650;27;20058;-62
2022/05/15 00:21:04;;;;;;;28.10;10.00;;;;;;;13.40;78.70;101862.31;5145944;27;20026;-63
2022/05/15 00:23:30;;;;;;;28.75;10.43;;;;;;;13.36;79.82;101856.06;5142891;27;20063;-62
2022/05/15 00:25:55;;;;;;;28.67;10.95;;;;;;;13.20;82.37;101860.31;5146226;27;20016;-63
2022/05/15 00:28:20;;;;;;;28.75;10.38;;;;;;;13.10;83.41;101857.56;5143418;27;20032;-62
2022/05/15 00:30:46;;;;;;;29.48;10.77;;;;;;;13.02;85.54;101855.72;5145047;27;20023;-63
2022/05/15 00:33:12;;;;;;;30.38;10.70;;;;;;;13.02;85.51;101849.53;5144359;27;20018;-62
2022/05/15 00:35:38;;;;;;;26.92;10.25;;;;;;;13.02;85.84;101855.72;5144325;27;20033;-62
2022/05/15 00:38:05;;;;;;;31.33;10.82;;;;;;;12.94;86.49;101851.22;5145487;27;20022;-62
2022/05/15 00:40:31;;;;;;;29.48;10.85;;;;;;;12.94;86.19;101851.22;5142462;27;20063;-62
2022/05/15 00:42:56;;;;;;;27.90;10.35;;;;;;;12.88;86.87;101846.72;5146214;27;20098;-62
2022/05/15 00:45:23;;;;;;;31.80;10.70;;;;;;;12.90;87.29;101848.53;5142406;27;20063;-62
2022/05/15 00:47:49;;;;;;;28.45;9.75;;;;;;;12.88;87.54;101847.59;5145336;27;20023;-63
2022/05/15 00:50:19;;;;;;;30.10;10.40;;;;;;;12.85;88.00;101846.69;5143821;27;20111;-65
2022/05/15 00:52:49;;;;;;;28.95;9.77;;;;;;;12.82;88.26;101842.25;5144646;27;20055;-64
2022/05/15 00:55:27;;;;;;;28.23;10.23;;;;;;;12.75;88.89;101843.03;5143593;27;20027;-64
2022/05/15 00:57:58;;;;;;;31.33;10.10;;;;;;;12.72;89.65;101843.00;5145977;27;20022;-65
2022/05/15 01:00:26;;;;;;;28.38;10.18;;;;;;;12.64;90.57;101839.38;5142652;27;20095;-65
2022/05/15 01:03:00;;;;;;;28.27;10.25;;;;;;;12.66;90.06;101845.59;5145708;27;20019;-65
2022/05/15 01:05:26;;;;;;;28.70;10.02;;;;;;;12.54;91.33;101838.41;5138222;27;20019;-64
2022/05/15 01:07:52;;;;;;;27.73;10.18;;;;;;;12.54;91.89;101844.56;5145759;27;20118;-64
2022/05/15 01:10:18;;;;;;;30.15;9.93;;;;;;;12.54;92.02;101844.56;5143051;27;20068;-64
2022/05/15 01:12:44;;;;;;;30.63;10.57;;;;;;;12.45;92.79;101847.13;5144433;27;20027;-64
2022/05/15 01:15:21;;;;;;;29.08;9.70;;;;;;;12.43;93.19;101843.56;5144499;27;20107;-64
2022/05/15 01:17:47;;;;;;;26.50;9.88;;;;;;;12.32;93.58;101850.47;5144678;27;20076;-65
2022/05/15 01:20:14;;;;;;;30.38;10.45;;;;;;;12.32;94.95;101845.16;5143795;27;20476;-64
2022/05/15 01:22:40;;;;;;;28.20;9.90;;;;;;;12.29;95.36;101839.81;5143365;27;20027;-67
2022/05/15 01:25:14;;;;;;;26.65;9.45;;;;;;;12.24;95.94;101852.16;5145153;27;20377;-66
2022/05/15 01:27:44;;;;;;;30.00;10.00;;;;;;;12.24;96.04;101842.41;5143250;27;20136;-66
2022/05/15 01:30:10;;;;;;;28.23;10.10;;;;;;;12.16;97.33;101844.09;5144063;27;20114;-65
2022/05/15 01:32:36;;;;;;;30.55;10.02;;;;;;;12.12;97.30;101845.81;5142907;27;20065;-62
2022/05/15 01:35:01;;;;;;;29.23;10.20;;;;;;;12.05;97.69;101845.69;5145130;27;20023;-63
2022/05/15 01:37:26;;;;;;;32.08;10.73;;;;;;;12.08;97.75;101848.41;5141888;27;20114;-61
2022/05/15 01:39:51;;;;;;;29.77;10.38;;;;;;;11.95;98.34;101848.19;5145036;27;20030;-63
2022/05/15 01:42:17;;;;;;;29.10;10.00;;;;;;;11.94;99.11;101849.09;5142764;27;20027;-62
2022/05/15 01:44:42;;;;;;;27.92;10.00;;;;;;;11.87;99.66;101841.88;5143734;27;20031;-62
2022/05/15 01:47:07;;;;;;;26.98;9.63;;;;;;;11.89;100.00;101836.59;5144346;27;20050;-62
2022/05/15 01:49:33;;;;;;;29.30;10.23;;;;;;;11.87;100.00;101841.88;5142544;27;20104;-62
2022/05/15 01:51:59;;;;;;;29.88;10.13;;;;;;;11.84;100.00;101845.38;5145511;27;20026;-62
2022/05/15 01:54:24;;;;;;;28.92;10.07;;;;;;;11.87;100.00;101844.53;5142188;27;20019;-61
2022/05/15 01:56:50;;;;;;;28.70;9.82;;;;;;;11.78;100.00;101841.72;5144559;27;20035;-61
2022/05/15 01:59:15;;;;;;;28.30;10.35;;;;;;;11.71;100.00;101840.75;5136412;27;20063;-61
2022/05/15 02:01:40;;;;;;;29.05;9.88;;;;;;;11.71;100.00;101846.06;5144131;27;20023;-61
2022/05/15 02:04:09;;;;;;;27.77;9.60;;;;;;;11.77;100.00;101845.28;5145269;27;20051;-62
2022/05/15 02:06:35;;;;;;;30.20;9.82;;;;;;;11.72;100.00;101846.94;5143386;27;20018;-61
2022/05/15 02:09:01;;;;;;;29.77;10.00;;;;;;;11.77;100.00;101834.66;5148521;27;20023;-61
2022/05/15 02:11:26;;;;;;;28.55;9.80;;;;;;;11.71;100.00;101830.16;5146734;27;20103;-61
2022/05/15 02:13:51;;;;;;;28.25;9.90;;;;;;;11.60;100.00;101831.75;5147091;27;20470;-61
2022/05/15 02:16:17;;;;;;;26.80;9.93;;;;;;;11.63;100.00;101831.78;5148091;27;20059;-62
2022/05/15 02:18:42;;;;;;;28.90;9.73;;;;;;;11.53;100.00;101830.75;5145248;27;20050;-63
2022/05/15 02:21:07;;;;;;;27.75;10.32;;;;;;;11.55;100.00;101833.41;5148971;27;20117;-63
2022/05/15 02:23:33;;;;;;;29.05;10.20;;;;;;;11.51;100.00;101832.50;5145523;27;20051;-63
2022/05/15 02:25:58;;;;;;;29.05;10.00;;;;;;;11.48;100.00;101838.63;5147505;27;20381;-62
2022/05/15 02:28:24;;;;;;;30.02;9.93;;;;;;;11.42;100.00;101835.00;5147109;27;20368;-65
2022/05/15 02:30:50;;;;;;;28.08;10.48;;;;;;;11.27;100.00;101832.97;5146525;27;20023;-63
2022/05/15 02:33:16;;;;;;;28.38;9.70;;;;;;;11.29;100.00;101833.91;5147934;27;20488;-62
2022/05/15 02:35:41;;;;;;;29.60;10.35;;;;;;;11.28;100.00;101835.63;5145461;27;20050;-62
2022/05/15 02:38:07;;;;;;;27.50;10.20;;;;;;;11.16;100.00;101841.59;5148397;27;20023;-61
2022/05/15 02:40:32;;;;;;;30.02;10.20;;;;;;;11.19;100.00;101827.53;5145809;27;20058;-61
2022/05/15 02:42:57;;;;;;;30.58;10.40;;;;;;;11.17;100.00;101831.94;5147357;27;20121;-61
2022/05/15 02:45:24;;;;;;;31.17;11.10;;;;;;;11.04;100.00;101830.81;5146544;27;20030;-62
2022/05/15 02:47:50;;;;;;;28.20;11.18;;;;;;;10.88;100.00;101823.44;5146095;27;20023;-62
2022/05/15 02:53:00;;;;;;;28.00;11.00;;;;;;;10.88;100.00;101826.09;5147587;27;20042;-61
2022/05/15 02:55:26;;;;;;;28.83;10.43;;;;;;;10.91;100.00;101827.06;5146189;27;20018;-61
2022/05/15 02:57:52;;;;;;;31.02;10.93;;;;;;;10.96;100.00;101824.47;5146216;27;20023;-61
2022/05/15 03:00:20;;;;;;;29.80;10.77;;;;;;;10.91;100.00;101820.88;5147095;27;20519;-62
2022/05/15 03:02:45;;;;;;;29.95;10.82;;;;;;;10.91;100.00;101823.53;5125845;27;20039;-60
2022/05/15 03:05:13;;;;;;;28.45;10.45;;;;;;;10.77;100.00;101825.91;5129646;27;20029;-61
2022/05/15 03:07:39;;;;;;;27.20;10.52;;;;;;;10.72;100.00;101817.88;5140541;27;20031;-61
2022/05/15 03:10:06;;;;;;;30.13;10.60;;;;;;;10.60;100.00;101812.34;5146977;27;20035;-61
2022/05/15 03:12:32;;;;;;;27.67;10.85;;;;;;;10.59;100.00;101821.16;5145258;27;20043;-61
2022/05/15 03:14:57;;;;;;;29.15;10.68;;;;;;;10.65;100.00;101815.97;5128125;27;20042;-62
2022/05/15 03:17:23;;;;;;;28.42;10.77;;;;;;;10.61;100.00;101816.78;5146151;27;20033;-61
2022/05/15 03:19:48;;;;;;;30.63;11.45;;;;;;;10.57;100.00;101813.19;5145326;27;20425;-62
2022/05/15 03:22:13;;;;;;;29.25;10.93;;;;;;;10.56;100.00;101815.81;5147124;27;20461;-61
2022/05/15 03:24:39;;;;;;;28.15;10.90;;;;;;;10.61;100.00;101819.41;5144136;27;20019;-61
2022/05/15 03:27:05;;;;;;;30.52;11.07;;;;;;;10.62;100.00;101815.91;5147593;27;20015;-61
2022/05/15 03:29:30;;;;;;;28.85;10.52;;;;;;;10.54;100.00;101812.22;5144944;27;20451;-60
2022/05/15 03:31:58;;;;;;;30.23;11.10;;;;;;;10.50;100.00;101816.56;5145892;27;20019;-62
2022/05/15 03:34:24;;;;;;;29.00;10.98;;;;;;;10.37;100.00;101810.13;5145861;27;20458;-61
2022/05/15 03:36:51;;;;;;;28.55;11.13;;;;;;;10.41;100.00;101812.00;5144744;27;20073;-62
2022/05/15 03:39:21;;;;;;;33.15;11.95;;;;;;;10.39;100.00;101808.41;5146661;27;20087;-63
2022/05/15 03:41:48;;;;;;;31.10;11.27;;;;;;;10.35;100.00;101806.56;5144578;27;20023;-63
2022/05/15 03:44:14;;;;;;;31.88;11.02;;;;;;;10.35;100.00;101806.56;5145784;27;20039;-63
2022/05/15 03:46:40;;;;;;;30.08;10.93;;;;;;;10.28;100.00;101810.81;5143630;27;20359;-62
2022/05/15 03:49:06;;;;;;;27.30;10.60;;;;;;;10.37;100.00;101809.22;5147033;27;20457;-63
2022/05/15 03:51:33;;;;;;;30.17;11.00;;;;;;;10.33;100.00;101808.25;5144326;27;20023;-62
2022/05/15 03:53:58;;;;;;;30.13;10.40;;;;;;;10.30;100.00;101809.06;5145930;27;20079;-61
2022/05/15 03:59:09;;;;;;;28.58;10.95;;;;;;;10.26;100.00;101801.94;5139700;27;20083;-61
2022/05/15 04:01:35;;;;;;;32.38;10.82;;;;;;;10.24;100.00;101803.66;5146273;27;20011;-63
2022/05/15 04:04:01;;;;;;;32.03;10.43;;;;;;;10.25;100.00;101805.47;5144253;27;20429;-62
2022/05/15 04:06:27;;;;;;;33.53;11.43;;;;;;;10.16;100.00;101804.38;5145221;27;20075;-61
2022/05/15 04:08:52;;;;;;;31.25;10.88;;;;;;;10.04;100.00;101808.53;5145295;27;20101;-61
2022/05/15 04:11:18;;;;;;;30.23;10.60;;;;;;;10.07;100.00;101805.94;5143944;27;20069;-62
2022/05/15 04:13:44;;;;;;;28.42;10.70;;;;;;;10.09;100.00;101808.63;5146675;27;20019;-62
2022/05/15 04:16:10;;;;;;;28.23;10.93;;;;;;;10.17;100.00;101822.00;5143344;27;20019;-61
2022/05/15 04:18:35;;;;;;;29.45;10.50;;;;;;;10.14;100.00;101821.94;5146459;27;20107;-61
2022/05/15 04:21:01;;;;;;;33.35;11.52;;;;;;;10.24;100.00;101829.22;5142812;27;20033;-61
2022/05/15 04:23:26;;;;;;;32.38;10.90;;;;;;;10.28;100.00;101826.66;5145108;27;20076;-64
2022/05/15 04:25:51;;;;;;;32.53;10.23;;;;;;;10.24;100.00;101821.28;5145181;27;20026;-65
2022/05/15 04:28:16;;;;;;;30.45;10.82;;;;;;;10.23;100.00;101820.38;5143518;27;20042;-64
2022/05/15 04:30:42;;;;;;;31.30;10.88;;;;;;;10.30;100.00;101824.94;5146410;27;20093;-64
2022/05/15 04:33:07;;;;;;;32.40;11.13;;;;;;;10.29;100.00;101822.25;5142887;27;20031;-65
2022/05/15 04:35:33;;;;;;;31.95;11.00;;;;;;;10.25;100.00;101820.41;5145617;27;20087;-64
2022/05/15 04:37:58;;;;;;;32.67;11.80;;;;;;;10.23;100.00;101822.13;5143790;27;20446;-65
2022/05/15 04:40:24;;;;;;;30.02;12.07;;;;;;;10.28;100.00;101820.47;5141830;27;20066;-64
2022/05/15 04:42:49;;;;;;;32.08;12.07;;;;;;;10.27;100.00;101813.41;5135687;27;20022;-65
2022/05/15 04:45:15;;;;;;;29.15;11.63;;;;;;;10.35;100.00;101821.53;5141774;27;20031;-65
2022/05/15 04:47:43;;;;;;;30.45;12.27;;;;;;;10.41;100.00;101822.56;5144058;27;20019;-64
2022/05/15 04:50:09;;;;;;;31.52;11.68;;;;;;;10.51;100.00;101815.69;5140883;27;20033;-64
2022/05/15 04:52:34;;;;;;;33.20;12.02;;;;;;;10.50;100.00;101819.22;5143929;27;20022;-64
2022/05/15 04:55:00;;;;;;;32.47;11.82;;;;;;;10.60;100.00;101817.63;5145236;27;20018;-65
2022/05/15 04:57:25;;;;;;;30.55;12.25;;;;;;;10.67;100.00;101819.53;5142371;27;20034;-65
2022/05/15 04:59:50;;;;;;;31.40;12.50;;;;;;;10.72;100.00;101811.72;5145942;27;20023;-65
2022/05/15 05:02:16;;;;;;;32.80;12.00;;;;;;;10.75;100.00;101812.66;5123338;27;20145;-64
2022/05/15 05:04:41;;;;;;;32.53;11.77;;;;;;;10.86;100.00;101818.13;5126261;27;20092;-63
2022/05/15 05:07:06;;;;;;;31.35;12.00;;;;;;;10.90;100.00;101814.69;5143955;27;20023;-64
2022/05/15 05:09:32;;;;;;;32.67;12.63;;;;;;;11.05;100.00;101822.00;5143050;27;20039;-64
2022/05/15 05:11:57;;;;;;;30.63;11.90;;;;;;;11.04;100.00;101821.97;5145136;27;20079;-61
2022/05/15 05:14:22;;;;;;;30.90;12.15;;;;;;;11.09;100.00;101834.41;5142556;27;20027;-64
2022/05/15 05:16:48;;;;;;;29.73;11.77;;;;;;;11.14;100.00;101827.47;5145748;27;20058;-63
2022/05/15 05:19:13;;;;;;;33.63;12.13;;;;;;;11.19;100.00;101821.38;5142726;27;20030;-64
2022/05/15 05:21:38;;;;;;;34.35;12.95;;;;;;;11.27;100.00;101828.59;5144337;27;20027;-64
2022/05/15 05:24:04;;;;;;;34.08;13.35;;;;;;;11.33;100.00;101831.31;5143894;27;20018;-63
2022/05/15 05:26:29;;;;;;;31.70;12.65;;;;;;;11.38;100.00;101826.09;5143017;27;20028;-64
2022/05/15 05:28:55;;;;;;;31.40;12.02;;;;;;;11.42;100.00;101820.00;5145753;27;20027;-64
2022/05/15 05:31:20;;;;;;;31.17;11.77;;;;;;;11.51;100.00;101825.44;5142392;27;20054;-64
2022/05/15 05:33:45;;;;;;;30.60;11.85;;;;;;;11.55;100.00;101822.81;5149723;27;20057;-63
2022/05/15 05:36:11;;;;;;;32.08;12.25;;;;;;;11.69;100.00;101821.28;5147221;27;20043;-63
2022/05/15 05:38:36;;;;;;;30.75;12.45;;;;;;;11.77;100.00;101818.78;5148142;27;20067;-62
2022/05/15 05:41:02;;;;;;;31.13;12.30;;;;;;;11.83;100.00;101822.38;5129719;27;20035;-63
2022/05/15 05:43:27;;;;;;;31.15;12.25;;;;;;;11.94;100.00;101821.69;5146460;27;20019;-64
2022/05/15 05:45:54;;;;;;;33.95;13.00;;;;;;;12.02;100.00;101831.53;5149579;27;20019;-64
2022/05/15 05:48:19;;;;;;;30.70;12.25;;;;;;;12.10;100.00;101818.41;5142154;27;20092;-62
2022/05/15 05:50:45;;;;;;;32.83;13.20;;;;;;;12.23;100.00;101819.44;5130035;27;20042;-62
2022/05/15 05:53:10;;;;;;;30.98;12.57;;;;;;;12.35;100.00;101824.03;5147039;27;20042;-62
2022/05/15 05:55:36;;;;;;;34.63;13.00;;;;;;;12.49;100.00;101822.41;5147439;27;20462;-61
2022/05/15 05:58:02;;;;;;;34.35;12.88;;;;;;;12.53;100.00;101829.53;5148386;27;20019;-66
2022/05/15 06:00:33;;;;;;;32.13;12.65;;;;;;;12.66;100.00;101824.38;5146337;27;20362;-64
2022/05/15 06:05:46;;;;;;;31.25;12.80;;;;;;;12.85;100.00;101830.78;5148689;27;20108;-65
2022/05/15 06:08:13;;;;;;;33.25;12.75;;;;;;;12.97;100.00;101830.00;5127628;27;20026;-65
2022/05/15 06:10:38;;;;;;;30.50;12.68;;;;;;;13.13;100.00;101825.75;5147312;27;20446;-64
2022/05/15 06:13:04;;;;;;;31.55;14.02;;;;;;;13.25;100.00;101826.75;5148220;27;20026;-64
2022/05/15 06:15:29;;;;;;;31.27;13.93;;;;;;;13.37;100.00;101820.69;5146153;27;20527;-65
2022/05/15 06:17:59;;;;;;;31.80;14.02;;;;;;;13.47;100.00;101816.34;5148900;27;20083;-64
2022/05/15 06:20:25;;;;;;;31.65;13.77;;;;;;;13.63;100.00;101817.34;5145406;27;20106;-65
2022/05/15 06:22:50;;;;;;;30.02;13.20;;;;;;;13.76;100.00;101819.19;5140979;27;20055;-64
2022/05/15 06:25:15;;;;;;;33.30;14.60;;;;;;;13.88;100.00;101815.72;5148204;27;20114;-65
2022/05/15 06:27:41;;;;;;;30.75;14.30;;;;;;;14.02;100.00;101820.22;5146604;27;20115;-64
2022/05/15 06:30:08;;;;;;;32.50;14.45;;;;;;;14.12;100.00;101822.06;5146846;27;20019;-65
2022/05/15 06:32:34;;;;;;;31.67;14.65;;;;;;;14.24;100.00;101822.13;5128846;27;20109;-64
2022/05/15 06:34:59;;;;;;;31.48;14.68;;;;;;;14.32;100.00;101819.50;5145673;27;20102;-65
2022/05/15 06:37:25;;;;;;;30.77;14.55;;;;;;;14.40;99.87;101819.53;5148525;27;20030;-62
2022/05/15 06:39:50;;;;;;;30.23;14.63;;;;;;;14.49;97.07;101819.56;5140834;27;20030;-61
2022/05/15 06:42:15;;;;;;;31.25;15.05;;;;;;;14.61;97.15;101822.28;5148176;27;20050;-62
2022/05/15 06:44:41;;;;;;;30.55;14.52;;;;;;;14.67;94.62;101817.91;5145112;27;20022;-63
2022/05/15 06:47:07;;;;;;;30.95;14.77;;;;;;;14.80;92.31;101811.72;5146659;27;20029;-61
2022/05/15 06:49:33;;;;;;;30.60;14.93;;;;;;;14.92;91.94;101822.38;5147332;27;20022;-62
2022/05/15 06:51:58;;;;;;;33.72;15.10;;;;;;;15.05;91.13;101817.06;5145435;27;20023;-61
2022/05/15 06:54:24;;;;;;;32.67;15.93;;;;;;;15.13;89.04;101820.63;5140419;27;20011;-62
2022/05/15 06:59:34;;;;;;;30.98;15.18;;;;;;;15.29;88.86;101813.53;5140088;27;20390;-64
2022/05/15 07:02:00;;;;;;;31.33;15.48;;;;;;;15.39;88.47;101817.09;5138985;27;20436;-68
2022/05/15 07:04:26;;;;;;;31.08;15.23;;;;;;;15.47;86.77;101809.97;5139426;27;20102;-67
2022/05/15 07:06:51;;;;;;;30.33;14.55;;;;;;;15.58;85.25;101809.97;5139338;27;20026;-67
2022/05/15 07:09:17;;;;;;;28.77;14.95;;;;;;;15.73;83.83;101817.94;5138273;27;20111;-67
2022/05/15 07:11:42;;;;;;;30.70;14.98;;;;;;;15.91;81.82;101824.16;5141833;27;20397;-66
2022/05/15 07:14:08;;;;;;;27.17;14.40;;;;;;;15.96;80.95;101825.94;5141296;27;20031;-66
2022/05/15 07:16:34;;;;;;;32.33;15.65;;;;;;;16.02;82.18;101823.25;5138536;27;20027;-65
2022/05/15 07:18:59;;;;;;;32.65;15.18;;;;;;;16.09;81.59;101833.88;5139167;27;20378;-66
2022/05/15 07:21:24;;;;;;;29.30;15.00;;;;;;;16.10;79.12;101828.56;5138203;27;20030;-66
2022/05/15 07:23:50;;;;;;;27.67;14.40;;;;;;;16.19;79.09;101830.31;5118968;27;20031;-68
2022/05/15 07:26:15;;;;;;;27.33;14.13;;;;;;;16.29;76.32;101833.84;5138290;27;20034;-69
2022/05/15 07:28:40;;;;;;;29.40;14.10;;;;;;;16.39;75.98;101833.78;5140930;27;20043;-67
2022/05/15 07:31:06;;;;;;;29.15;14.90;;;;;;;16.56;74.70;101827.50;5120030;27;20031;-67
2022/05/15 07:33:31;;;;;;;27.00;14.32;;;;;;;16.66;72.92;101834.56;5139164;27;20102;-68
2022/05/15 07:35:57;;;;;;;29.60;14.60;;;;;;;16.71;71.67;101824.72;5135665;27;20035;-68
2022/05/15 07:38:23;;;;;;;29.00;14.30;;;;;;;16.86;71.55;101825.53;5141245;27;20091;-68
2022/05/15 07:40:49;;;;;;;27.90;13.68;;;;;;;17.00;70.90;101821.03;5139069;27;20119;-66
2022/05/15 07:43:15;;;;;;;27.08;13.63;;;;;;;17.15;69.46;101816.47;5140991;27;20478;-68
2022/05/15 07:45:40;;;;;;;28.80;14.77;;;;;;;17.31;71.42;101812.78;5136753;27;20023;-68
2022/05/15 07:48:06;;;;;;;29.83;14.00;;;;;;;17.43;68.46;101818.03;5119681;27;20489;-68
2022/05/15 07:50:33;;;;;;;27.13;13.95;;;;;;;17.58;67.02;101816.13;5136212;27;20023;-67
2022/05/15 07:52:58;;;;;;;26.73;13.52;;;;;;;17.71;64.81;101817.75;5140245;27;20083;-67
2022/05/15 07:55:23;;;;;;;27.52;13.85;;;;;;;17.90;63.28;101820.28;5137210;27;20023;-71
2022/05/15 07:57:49;;;;;;;27.45;14.32;;;;;;;18.05;63.30;101822.78;5122340;27;20018;-70
2022/05/15 08:00:16;;;;;;;25.80;13.35;;;;;;;18.21;61.27;101828.84;5136164;27;20083;-70
2022/05/15 08:02:42;;;;;;;26.33;13.50;;;;;;;18.37;59.17;101818.81;5138175;27;20384;-70
2022/05/15 08:08:01;;;;;;;27.77;13.90;;;;;;;18.53;58.75;101824.00;5136211;27;20114;-70
2022/05/15 08:10:33;;;;;;;28.20;13.25;;;;;;;18.68;57.84;101812.19;5139035;27;20065;-64
2022/05/15 08:12:59;;;;;;;30.25;13.40;;;;;;;18.94;58.89;101803.78;5139581;27;20463;-62
2022/05/15 08:15:24;;;;;;;28.48;13.30;;;;;;;19.09;56.23;101803.56;5137611;27;20019;-62
2022/05/15 08:17:50;;;;;;;29.38;13.48;;;;;;;19.37;55.38;101805.78;5137919;27;20015;-62
2022/05/15 08:25:45;;;;;;;28.13;12.80;;;;;;;19.71;52.83;101788.22;5139703;27;20500;-62
2022/05/15 08:28:11;;;;;;;27.70;13.05;;;;;;;19.88;51.32;101785.22;5146599;27;20082;-62
2022/05/15 08:30:37;;;;;;;26.35;12.38;;;;;;;20.22;50.50;101793.47;5143002;27;20023;-62
2022/05/15 08:33:03;;;;;;;26.30;12.32;;;;;;;20.50;49.45;101793.78;5145338;27;20022;-62
2022/05/15 08:35:29;;;;;;;25.45;11.15;;;;;;;20.72;47.55;101785.25;5125588;27;20033;-63
2022/05/15 08:37:55;;;;;;;25.88;12.00;;;;;;;20.86;47.40;101775.06;5144854;27;20023;-62
2022/05/15 08:40:25;;;;;;;27.55;12.60;;;;;;;20.94;47.09;101771.31;5144935;27;20079;-66
2022/05/15 08:42:56;;;;;;;26.08;11.85;;;;;;;21.02;46.96;101772.00;5143643;27;20027;-65
2022/05/15 08:45:29;;;;;;;25.48;11.40;;;;;;;21.03;46.75;101769.28;5127056;27;20453;-65
2022/05/15 08:48:12;;;;;;;24.40;12.07;;;;;;;21.05;45.04;101769.25;5144266;27;20469;-65
2022/05/15 08:50:48;;;;;;;26.25;11.85;;;;;;;21.14;45.21;101766.31;5138606;27;20042;-67
2022/05/15 08:53:35;;;;;;;24.75;10.35;;;;;;;21.29;45.08;101756.09;5139457;27;20181;-67
2022/05/15 08:56:07;;;;;;;23.83;11.07;;;;;;;21.31;43.21;101754.25;5143160;27;20034;-66
2022/05/15 08:58:47;;;;;;;24.35;10.27;;;;;;;21.54;45.07;101767.13;5145015;27;20053;-64
2022/05/15 09:01:24;;;;;;;25.42;10.98;;;;;;;21.82;44.95;101764.53;5138744;27;20039;-64
2022/05/15 09:03:49;;;;;;;24.88;10.32;;;;;;;22.09;42.36;101760.19;5145068;27;20034;-66
2022/05/15 09:06:39;;;;;;;23.25;9.82;;;;;;;22.34;42.44;101761.28;5142475;27;20124;-65
2022/05/15 09:09:24;;;;;;;25.33;10.90;;;;;;;22.28;40.72;101760.50;5143024;27;20180;-65
2022/05/15 09:11:56;;;;;;;24.08;10.45;;;;;;;22.28;41.19;101749.75;5136824;27;20070;-69
2022/05/15 09:14:46;;;;;;;25.52;10.23;;;;;;;22.48;40.90;101760.88;5139737;27;20027;-68
2022/05/15 09:17:30;;;;;;;25.90;10.00;;;;;;;22.64;39.92;101751.34;5137337;27;20539;-65
2022/05/15 09:19:58;;;;;;;24.02;9.35;;;;;;;22.76;38.02;101768.94;5137742;27;20029;-67
2022/05/15 09:22:28;;;;;;;23.15;9.32;;;;;;;22.82;36.50;101766.06;5139067;27;20026;-64
2022/05/15 09:24:55;;;;;;;23.50;8.90;;;;;;;23.01;37.07;101754.66;5135557;27;20023;-69
2022/05/15 09:27:26;;;;;;;23.15;8.60;;;;;;;23.26;38.33;101750.25;5135958;27;20424;-69
2022/05/15 09:29:55;;;;;;;24.23;8.85;;;;;;;23.43;36.90;101755.06;5136775;27;20019;-70
2022/05/15 09:32:42;;;;;;;23.27;9.43;;;;;;;23.65;38.13;101749.75;5139613;27;20380;-71
2022/05/15 09:35:16;;;;;;;21.70;7.50;;;;;;;23.78;34.37;101742.09;5136618;27;20023;-70
2022/05/15 09:43:37;;;;;;;22.85;6.90;;;;;;;25.34;32.01;101749.47;5139548;27;20119;-62
2022/05/15 09:46:10;;;;;;;20.98;6.50;;;;;;;26.38;29.41;101748.38;5137678;27;20027;-62
2022/05/15 09:48:40;;;;;;;22.58;6.93;;;;;;;27.72;28.86;101738.03;5135473;27;20034;-62
2022/05/15 09:51:12;;;;;;;22.25;7.20;;;;;;;28.93;27.65;101732.19;5136474;27;20421;-63
2022/05/15 09:53:52;;;;;;;21.42;6.95;;;;;;;29.39;25.05;101728.56;5142894;27;20034;-62
2022/05/15 09:56:21;;;;;;;21.90;6.22;;;;;;;30.15;24.85;101729.31;5140485;27;20027;-62
2022/05/15 09:59:05;;;;;;;20.92;6.57;;;;;;;31.04;24.17;101723.41;5138063;27;20038;-63
2022/05/15 10:01:50;;;;;;;21.70;5.90;;;;;;;31.06;24.03;101721.47;5141005;27;20027;-62
2022/05/15 10:04:30;;;;;;;21.33;6.90;;;;;;;31.20;22.94;101727.81;5141807;27;20492;-62
2022/05/15 10:07:07;;;;;;;20.85;6.60;;;;;;;31.15;22.63;101730.88;5142762;27;20031;-63
2022/05/15 10:09:39;;;;;;;21.40;6.30;;;;;;;30.88;22.03;101728.16;5144929;27;20026;-62
2022/05/15 10:12:15;;;;;;;20.38;5.90;;;;;;;31.14;21.72;101731.00;5143408;27;20493;-64
2022/05/15 10:14:46;;;;;;;21.42;5.90;;;;;;;32.33;20.94;101738.00;5142323;27;20366;-63
2022/05/15 10:17:13;;;;;;;20.33;6.07;;;;;;;33.11;19.74;101727.56;5144513;27;20078;-62
2022/05/15 10:20:04;;;;;;;20.02;5.97;;;;;;;33.22;20.54;101713.09;5144925;27;20023;-63
2022/05/15 10:22:47;;;;;;;20.48;5.75;;;;;;;33.01;20.74;101713.75;5144035;27;20031;-67
2022/05/15 10:25:33;;;;;;;21.38;5.50;;;;;;;33.32;20.06;101710.47;5127303;27;20381;-63
2022/05/15 10:28:38;;;;;;;19.77;5.70;;;;;;;33.96;19.41;101718.19;5144096;27;20059;-67
2022/05/15 10:31:05;;;;;;;21.55;5.65;;;;;;;34.19;18.97;101720.88;5144952;27;20042;-66
2022/05/15 10:33:36;;;;;;;18.58;5.70;;;;;;;34.58;18.46;101713.09;5147307;27;20057;-67
2022/05/15 10:36:27;;;;;;;19.58;6.18;;;;;;;34.87;18.45;101713.41;5146602;27;20031;-67
2022/05/15 10:39:22;;;;;;;24.48;6.22;;;;;;;35.08;19.18;101698.81;5069921;28;20090;-65
2022/05/15 10:42:25;;;;;;;30.42;6.70;;;;;;;34.42;18.85;101699.81;4974593;28;20402;-66
2022/05/15 10:45:05;;;;;;;21.08;6.05;;;;;;;34.55;18.46;101699.66;4974258;28;20026;-63
2022/05/15 10:47:37;;;;;;;23.90;6.72;;;;;;;34.43;17.97;101697.94;4974043;28;20133;-63
2022/05/15 10:50:20;;;;;;;20.70;6.05;;;;;;;33.32;19.12;101686.72;4974207;28;20031;-63
2022/05/15 10:59:42;;;;;;;19.98;5.93;;;;;;;33.35;19.06;101681.00;4914189;29;20054;-69
2022/05/15 11:02:07;;;;;;;23.27;6.13;;;;;;;33.86;18.65;101684.31;4916158;29;20049;-63
2022/05/15 11:04:54;;;;;;;20.97;5.90;;;;;;;33.84;18.76;101681.69;4916529;29;20577;-68
2022/05/15 11:07:38;;;;;;;19.20;5.60;;;;;;;34.58;18.60;101689.28;4916586;29;20052;-69
2022/05/15 11:10:30;;;;;;;21.38;5.57;;;;;;;36.27;18.19;101693.78;4916333;29;20036;-63
2022/05/15 11:13:12;;;;;;;20.35;5.38;;;;;;;37.47;15.20;101688.03;4916473;29;20131;-64
2022/05/15 11:15:40;;;;;;;20.10;5.05;;;;;;;36.93;15.67;101686.78;4935698;28;20070;-65
2022/05/15 11:18:35;;;;;;;21.27;6.13;;;;;;;37.22;16.45;101683.13;4983262;28;20060;-65
2022/05/15 11:21:05;;;;;;;20.20;5.70;;;;;;;38.07;15.07;101683.13;5039567;28;20022;-67
2022/05/15 11:23:31;;;;;;;19.00;5.40;;;;;;;38.46;14.24;101671.84;5039659;28;20048;-67
2022/05/15 11:26:03;;;;;;;20.77;5.15;;;;;;;37.95;15.41;101660.41;5041595;28;20033;-64
2022/05/15 11:28:42;;;;;;;21.73;5.28;;;;;;;38.24;14.95;101663.00;5042560;28;20583;-68
2022/05/15 11:31:13;;;;;;;19.58;5.30;;;;;;;38.53;13.88;101656.41;5036051;28;20025;-66
2022/05/15 11:33:52;;;;;;;18.98;4.95;;;;;;;39.15;14.64;101644.53;5036477;28;20029;-69
2022/05/15 11:36:27;;;;;;;19.60;4.68;;;;;;;38.68;14.94;101640.16;5109353;27;20050;-66
2022/05/15 11:39:05;;;;;;;19.52;4.88;;;;;;;38.16;15.05;101641.69;5145670;27;20031;-68
2022/05/15 11:41:34;;;;;;;17.45;4.78;;;;;;;38.74;14.49;101636.78;5146659;27;20041;-68
2022/05/15 11:44:03;;;;;;;18.50;5.15;;;;;;;37.68;14.33;101638.16;5144661;27;20046;-66
2022/05/15 11:46:51;;;;;;;17.88;4.93;;;;;;;37.30;15.42;101622.66;5146065;27;20027;-66